Home > Products > Valid Products > TAF

000
FTUS41 KILN 231736
TAFDAY
TAF
KDAY 231736Z 2318/2418 10005KT P6SM FEW050
     FM240100 00000KT P6SM SKC
     FM241300 23009KT P6SM FEW040=



000
FTUS41 KILN 231736
TAFCMH
TAF
KCMH 231736Z 2318/2418 03004KT P6SM SCT050
     FM240100 00000KT P6SM SKC
     FM241400 23007KT P6SM FEW050=



000
FTUS41 KILN 231736
TAFCVG
TAF
KCVG 231736Z 2318/2424 07005KT P6SM FEW050
     FM240000 00000KT P6SM SKC
     FM241400 20007KT P6SM FEW040 SCT250=



000
FTUS41 KILN 231736
TAFLCK
TAF
KLCK 231736Z 2318/2418 03003KT P6SM SCT050
     FM240100 00000KT P6SM SKC
     FM241400 23007KT P6SM FEW050=



000
FTUS41 KILN 231736
TAFLUK
TAF
KLUK 231736Z 2318/2418 07003KT P6SM FEW050
     FM240000 00000KT P6SM SKC
     FM240600 00000KT 2SM BR SKC
      TEMPO 2407/2411 1/4SM FG VV002
     FM241200 20005KT P6SM FEW040=



000
FTUS41 KILN 231454 AAA
TAFCVG
TAF AMD
KCVG 231454Z 2315/2418 07005KT P6SM SKC
     FM240000 00000KT P6SM SKC
     FM241400 20005KT P6SM SCT250=



000
FTUS41 KILN 231216 AAA
TAFLUK
TAF AMD
KLUK 231216Z 2312/2412 04004KT P6SM SKC
     FM240000 00000KT P6SM SKC
     FM240600 00000KT 2SM BR SKC
      TEMPO 2408/2411 1/2SM FG BKN002=



000
FTUS41 KILN 231120
TAFDAY
TAF
KDAY 231120Z 2312/2412 05004KT P6SM SKC
     FM231900 VRB04KT P6SM SCT060
     FM240000 18004KT P6SM SKC=



000
FTUS41 KILN 231120
TAFLUK
TAF
KLUK 231120Z 2312/2412 00000KT 5SM BR SKC
     FM231300 04004KT P6SM SKC
     FM240000 00000KT P6SM SKC
     FM240600 00000KT 2SM BR SKC
      TEMPO 2408/2411 1/2SM FG BKN002=



000
FTUS41 KILN 231120
TAFCVG
TAF
KCVG 231120Z 2312/2418 05005KT P6SM SKC
     FM240000 VRB02KT P6SM SKC
     FM241400 20005KT P6SM SCT250=



000
FTUS41 KILN 231120
TAFCMH
TAF
KCMH 231120Z 2312/2412 03004KT P6SM SKC
     FM231900 03006KT P6SM BKN050
     FM240000 VRB03KT P6SM SKC=



000
FTUS41 KILN 231120
TAFLCK
TAF
KLCK 231120Z 2312/2412 03004KT P6SM SKC
     FM231900 03006KT P6SM BKN050
     FM240000 VRB02KT P6SM SKC=



000
FTUS41 KILN 231120
TAFILN
TAF
KILN 231120Z 2312/2412 04004KT P6SM SKC
     FM231900 01005KT P6SM SCT060
     FM240000 VRB02KT P6SM SKC=



000
FTUS41 KILN 230526
TAFCVG
TAF
KCVG 230526Z 2306/2412 07006KT P6SM SKC
     FM240000 VRB02KT P6SM SKC=



000
FTUS41 KILN 230526
TAFILN
TAF
KILN 230526Z 2306/2406 04005KT P6SM SKC
     FM231900 01005KT P6SM SCT060
     FM240000 VRB02KT P6SM SKC=



000
FTUS41 KILN 230526
TAFLUK
TAF
KLUK 230526Z 2306/2406 00000KT P6SM SKC
     FM230800 00000KT 3SM BR SCT002
      TEMPO 2309/2312 1SM BR
     FM231300 04005KT P6SM SKC=



000
FTUS41 KILN 230526
TAFLCK
TAF
KLCK 230526Z 2306/2406 03005KT P6SM SKC
     FM231900 03006KT P6SM BKN050
     FM240000 VRB02KT P6SM SKC=



000
FTUS41 KILN 230526
TAFDAY
TAF
KDAY 230526Z 2306/2406 06005KT P6SM SKC
     FM231900 VRB04KT P6SM SCT060
     FM240000 18004KT P6SM SKC=



000
FTUS41 KILN 230526
TAFCMH
TAF
KCMH 230526Z 2306/2406 03005KT P6SM SKC
     FM231900 03006KT P6SM BKN050
     FM240000 VRB03KT P6SM SKC=



000
FTUS41 KILN 221128
TAFDAY
TAF
KDAY 221128Z 2212/2312 30007KT P6SM SKC
     FM221300 33010KT P6SM BKN100
     FM221700 35012KT P6SM SCT050
     FM230000 01006KT P6SM SKC=



000
FTUS41 KILN 221128
TAFILN
TAF
KILN 221128Z 2212/2312 30005KT P6SM SKC
     FM221300 32010KT P6SM BKN100
     FM221700 34011KT P6SM BKN050
     FM230000 01006KT P6SM FEW060=



000
FTUS41 KILN 221128
TAFCVG
TAF
KCVG 221128Z 2212/2318 29005KT P6SM SKC
     FM221500 32011KT P6SM SCT100
     FM230000 02005KT P6SM SKC=



000
FTUS41 KILN 221128
TAFLCK
TAF
KLCK 221128Z 2212/2312 30004KT 5SM BR SCT100
     FM221400 32007KT P6SM BKN100
     FM221700 33011KT P6SM BKN050
     FM230000 01006KT P6SM FEW060
     FM230500 VRB03KT P6SM SKC=



000
FTUS41 KILN 221128
TAFCMH
TAF
KCMH 221128Z 2212/2312 30004KT P6SM SCT100
     FM221400 33007KT P6SM BKN100
     FM221700 35011KT P6SM BKN050
     FM230000 01006KT P6SM FEW060
     FM230500 VRB03KT P6SM SKC=



000
FTUS41 KILN 221128
TAFLUK
TAF
KLUK 221128Z 2212/2312 00000KT 1/4SM FG VV001
     FM221300 32003KT P6SM SKC
     FM221500 32010KT P6SM SCT100
     FM230000 01004KT P6SM SKC
     FM230700 00000KT 1/2SM FG BKN002=



000
FTUS41 KILN 221002 AAA
TAFLUK
TAF AMD
KLUK 221002Z 2210/2306 00000KT 1/4SM FG VV001
      TEMPO 2210/2212 3SM BR SCT002
     FM221200 32003KT P6SM SKC
     FM221500 32010KT P6SM SCT100
     FM230000 01004KT P6SM SKC=



000
FTUS41 KILN 220535
TAFDAY
TAF
KDAY 220535Z 2206/2306 30005KT P6SM SKC
     FM221400 33010KT P6SM BKN100
     FM221800 35012KT P6SM SCT050
     FM230000 01006KT P6SM SKC=



000
FTUS41 KILN 220535
TAFLUK
TAF
KLUK 220535Z 2206/2306 00000KT 2SM BR SCT003
      TEMPO 2206/2210 1/4SM FG VV002
     FM221200 32003KT P6SM SKC
     FM221500 32010KT P6SM SCT100
     FM230000 01004KT P6SM SKC=



000
FTUS41 KILN 220535
TAFCMH
TAF
KCMH 220535Z 2206/2306 33004KT P6SM SKC
     FM221200 33007KT P6SM BKN100
     FM221800 35011KT P6SM BKN050
     FM230000 01006KT P6SM FEW060=



000
FTUS41 KILN 220535
TAFILN
TAF
KILN 220535Z 2206/2306 32005KT P6SM SKC
     FM221400 32010KT P6SM BKN100
     FM221800 34011KT P6SM BKN050
     FM230000 01006KT P6SM FEW060=



000
FTUS41 KILN 220535
TAFCVG
TAF
KCVG 220535Z 2206/2312 32004KT P6SM SKC
     FM221500 32011KT P6SM SCT100
     FM230000 02005KT P6SM SKC=



000
FTUS41 KILN 220535
TAFLCK
TAF
KLCK 220535Z 2206/2306 33004KT P6SM SKC
     FM221200 32007KT P6SM BKN100
     FM221800 33011KT P6SM BKN050
     FM230000 01006KT P6SM FEW060=



000
FTUS41 KILN 212330
TAFCVG
TAF
KCVG 212330Z 2200/2306 35006KT P6SM BKN080
     FM220300 33005KT P6SM SKC
     FM221500 32011KT P6SM SCT100
     FM230000 02005KT P6SM SKC=



000
FTUS41 KILN 212330
TAFDAY
TAF
KDAY 212330Z 2200/2224 35008KT P6SM BKN100
     FM220300 30005KT P6SM SKC
     FM221400 33010KT P6SM BKN100
     FM221800 35012KT P6SM SCT050=



000
FTUS41 KILN 212330
TAFLUK
TAF
KLUK 212330Z 2200/2224 34004KT P6SM BKN080
     FM220300 00000KT P6SM SKC
     FM220700 00000KT 3SM BR SKC
      TEMPO 2208/2211 1SM BR FEW002
     FM221200 34003KT P6SM SKC
     FM221500 32010KT P6SM SCT100=



000
FTUS41 KILN 212330
TAFILN
TAF
KILN 212330Z 2200/2224 34005KT P6SM BKN100
     FM220400 33004KT P6SM SKC
     FM221400 32010KT P6SM BKN100
     FM221800 34011KT P6SM BKN050=



000
FTUS41 KILN 212330
TAFCMH
TAF
KCMH 212330Z 2200/2224 34007KT P6SM BKN080
     FM220400 34003KT P6SM SKC
     FM221200 34007KT P6SM OVC100
     FM221800 35011KT P6SM BKN050=



000
FTUS41 KILN 212330
TAFLCK
TAF
KLCK 212330Z 2200/2224 35007KT P6SM BKN080
     FM220400 33003KT P6SM SKC
     FM221200 32007KT P6SM OVC100
     FM221800 33011KT P6SM BKN050=



000
FTUS41 KILN 212001 AAA
TAFILN
TAF AMD
KILN 212001Z 2120/2218 34010KT 2SM -SHRA BR OVC009
     FM212100 35011KT P6SM VCSH SCT009 OVC012
     FM212200 35010KT P6SM VCSH SCT015 OVC050
     FM220100 34004KT P6SM SCT060
     FM220600 31005KT P6SM FEW070 SCT100
     FM221700 34010G18KT P6SM SCT050=



000
FTUS41 KILN 211736
TAFLCK
TAF
KLCK 211736Z 2118/2218 34011KT P6SM VCSH SCT012 OVC020
      TEMPO 2118/2120 BKN012
     FM220100 34004KT P6SM BKN090
     FM220900 01004KT P6SM SCT080
     FM221700 33010G18KT P6SM VCSH BKN060=



000
FTUS41 KILN 211736
TAFCMH
TAF
KCMH 211736Z 2118/2218 34011KT P6SM VCSH SCT009 OVC012
     FM211900 35011KT P6SM VCSH SCT012 OVC025
     FM220100 34004KT P6SM BKN090
     FM220900 01004KT P6SM SCT080
     FM221700 33010G18KT P6SM VCSH BKN060=



000
FTUS41 KILN 211736
TAFILN
TAF
KILN 211736Z 2118/2218 34010KT P6SM VCSH OVC009
     FM211900 35012KT P6SM VCSH SCT009 OVC012
     FM212100 35010KT P6SM VCSH SCT015 OVC050
     FM220100 34004KT P6SM SCT060
     FM220600 31005KT P6SM FEW070 SCT100
     FM221700 34010G18KT P6SM SCT050=



000
FTUS41 KILN 211736
TAFCVG
TAF
KCVG 211736Z 2118/2224 34010G18KT P6SM VCSH BKN015
     FM212100 35010KT P6SM VCSH SCT035 BKN080
     FM220300 33005KT P6SM SCT060
     FM221500 33009KT P6SM FEW080
     FM221800 33010G18KT P6SM SCT060=



000
FTUS41 KILN 211736
TAFDAY
TAF
KDAY 211736Z 2118/2218 01010KT P6SM VCSH BKN015 OVC025
     FM211900 02010G18KT P6SM VCSH SCT025 OVC060
     FM212300 34006KT P6SM SCT060
     FM220600 30005KT P6SM FEW070
     FM221600 32010G18KT P6SM SCT050=



000
FTUS41 KILN 211736
TAFLUK
TAF
KLUK 211736Z 2118/2218 35010G18KT P6SM VCSH BKN020
     FM212100 35005KT P6SM VCSH SCT035 BKN080
     FM220300 00000KT P6SM SCT060
      TEMPO 2209/2212 5SM BR
     FM221500 33008KT P6SM FEW080=



000
FTUS41 KILN 211501 AAA
TAFCVG
TAF AMD
KCVG 211501Z 2115/2218 35005KT P6SM VCSH OVC008
     FM211700 34012KT P6SM VCSH SCT008 OVC012
     FM211900 35012G20KT P6SM VCSH SCT020 BKN035
     FM220000 35006KT P6SM SCT060=



    US Dept of Commerce
    National Oceanic and Atmospheric Administration
    National Weather Service
    1325 East West Highway
    Silver Spring, MD 20910
    Page Author: NWS Internet Services Team
Disclaimer
Information Quality
Credits
Glossary
Privacy Policy
Freedom of Information Act (FOIA)
About Us
Career Opportunities